createdAt,value
2023-05-03T00:01:16.378Z,10.71
2023-05-03T00:06:18.586Z,10.69
2023-05-03T00:11:21.229Z,10.68
2023-05-03T00:16:22.980Z,10.69
2023-05-03T00:21:24.741Z,10.71
2023-05-03T00:26:28.287Z,10.75
2023-05-03T00:31:30.063Z,10.79
2023-05-03T00:36:31.932Z,10.81
2023-05-03T00:41:33.660Z,10.85
2023-05-03T00:46:35.637Z,10.87
2023-05-03T00:51:37.589Z,10.88
2023-05-03T00:56:48.281Z,10.85
2023-05-03T01:01:53.541Z,10.77
2023-05-03T01:07:10.554Z,10.67
2023-05-03T01:12:12.223Z,10.59
2023-05-03T01:17:18.330Z,10.52
2023-05-03T01:22:34.291Z,10.50
2023-05-03T01:27:37.482Z,10.51
2023-05-03T01:33:09.249Z,10.51
2023-05-03T01:38:12.593Z,10.52
2023-05-03T01:43:16.561Z,10.53
2023-05-03T01:48:19.934Z,10.54
2023-05-03T01:53:21.760Z,10.55
2023-05-03T01:58:23.665Z,10.56
2023-05-03T02:03:25.350Z,10.58
2023-05-03T02:08:27.066Z,10.68
2023-05-03T02:13:28.814Z,10.81
2023-05-03T02:18:31.507Z,10.92
2023-05-03T02:23:33.296Z,10.99
2023-05-03T02:28:35.264Z,11.02
2023-05-03T02:33:37.231Z,11.06
2023-05-03T02:38:38.914Z,11.07
2023-05-03T02:43:40.760Z,11.06
2023-05-03T02:48:42.576Z,11.07
2023-05-03T02:53:44.465Z,11.06
2023-05-03T02:58:46.433Z,11.04
2023-05-03T03:03:48.770Z,10.99
2023-05-03T03:08:50.606Z,10.94
2023-05-03T03:13:53.109Z,10.90
2023-05-03T03:18:55.855Z,10.86
2023-05-03T03:23:57.646Z,10.84
2023-05-03T03:28:59.777Z,10.82
2023-05-03T03:34:01.571Z,10.80
2023-05-03T03:39:05.113Z,10.77
2023-05-03T03:44:07.823Z,10.75
2023-05-03T03:49:09.683Z,10.73
2023-05-03T03:54:11.739Z,10.73
2023-05-03T03:59:14.889Z,10.73
2023-05-03T04:07:12.925Z,10.75
2023-05-03T04:12:14.695Z,10.69
2023-05-03T04:17:17.626Z,10.66
2023-05-03T04:22:20.075Z,10.62
2023-05-03T04:27:21.958Z,10.58
2023-05-03T04:32:24.646Z,10.54
2023-05-03T04:37:27.493Z,10.52
2023-05-03T04:42:29.406Z,10.53
2023-05-03T04:47:31.816Z,10.56
2023-05-03T04:52:34.937Z,10.56
2023-05-03T04:57:37.040Z,10.52
2023-05-03T05:02:40.085Z,10.47
2023-05-03T05:07:42.253Z,10.45
2023-05-03T05:12:44.886Z,10.50
2023-05-03T05:17:48.369Z,10.52
2023-05-03T05:22:50.293Z,10.54
2023-05-03T05:27:52.110Z,10.58
2023-05-03T05:32:54.213Z,10.64
2023-05-03T05:37:56.119Z,10.70
2023-05-03T05:42:58.059Z,10.79
2023-05-03T05:48:00.692Z,10.88
2023-05-03T05:53:02.601Z,10.89
2023-05-03T05:58:07.393Z,10.88
2023-05-03T06:03:15.899Z,10.92
2023-05-03T06:08:18.205Z,11.00
2023-05-03T06:13:20.000Z,11.08
2023-05-03T06:18:22.596Z,11.15
2023-05-03T06:23:24.341Z,11.19
2023-05-03T06:28:27.555Z,11.22
2023-05-03T06:33:30.800Z,11.36
2023-05-03T06:38:32.706Z,11.60
2023-05-03T06:43:34.454Z,11.99
2023-05-03T06:48:38.424Z,12.34
2023-05-03T06:53:40.297Z,12.78
2023-05-03T06:58:42.009Z,13.11
2023-05-03T07:03:43.761Z,13.17
2023-05-03T07:08:45.833Z,13.17
2023-05-03T07:13:47.516Z,13.04
2023-05-03T07:18:49.228Z,12.84
2023-05-03T07:23:50.933Z,12.77
2023-05-03T07:28:53.193Z,12.78
2023-05-03T07:33:55.108Z,12.68
2023-05-03T07:38:58.656Z,12.50
2023-05-03T07:44:00.607Z,12.43
2023-05-03T07:49:04.336Z,12.41
2023-05-03T07:54:06.386Z,12.37
2023-05-03T07:59:10.311Z,12.67
2023-05-03T08:04:12.801Z,12.89
2023-05-03T08:09:15.759Z,13.19
2023-05-03T08:14:17.549Z,13.39
2023-05-03T08:19:19.623Z,13.86
2023-05-03T08:24:21.799Z,14.34
2023-05-03T08:29:24.062Z,14.51
2023-05-03T08:34:26.866Z,14.54
2023-05-03T08:39:31.182Z,15.02
2023-05-03T08:44:37.226Z,15.27
2023-05-03T08:49:39.973Z,15.16
2023-05-03T08:54:41.719Z,15.10
2023-05-03T08:59:54.356Z,15.30
2023-05-03T09:04:56.842Z,15.47
2023-05-03T09:10:00.396Z,15.08
2023-05-03T09:15:03.630Z,14.55
2023-05-03T09:20:08.964Z,14.26
2023-05-03T09:25:12.164Z,14.07
2023-05-03T09:30:19.261Z,14.14
2023-05-03T09:35:21.124Z,14.29
2023-05-03T09:40:22.845Z,14.36
2023-05-03T09:45:24.565Z,14.57
2023-05-03T09:50:26.913Z,14.80
2023-05-03T09:55:31.717Z,15.03
2023-05-03T10:00:38.565Z,15.21
2023-05-03T10:05:47.185Z,15.41
2023-05-03T10:10:52.146Z,15.67
2023-05-03T10:16:00.784Z,15.92
2023-05-03T10:21:09.635Z,16.04
2023-05-03T10:26:13.526Z,16.14
2023-05-03T10:31:48.082Z,16.17
2023-05-03T10:36:55.094Z,16.26
2023-05-03T10:42:01.689Z,16.47
2023-05-03T10:47:19.957Z,16.81
2023-05-03T10:52:39.658Z,16.99
2023-05-03T10:57:43.627Z,17.24
2023-05-03T11:03:09.227Z,17.81
2023-05-03T11:08:17.076Z,18.60
2023-05-03T11:13:18.904Z,19.25
2023-05-03T11:18:20.835Z,19.08
2023-05-03T11:23:28.483Z,18.79
2023-05-03T11:28:41.993Z,18.42
2023-05-03T11:33:44.611Z,18.54
2023-05-03T11:38:47.716Z,18.98
2023-05-03T11:44:00.777Z,19.72
2023-05-03T11:49:06.269Z,20.18
2023-05-03T11:54:21.187Z,20.62
2023-05-03T11:59:40.837Z,21.02
2023-05-03T12:04:45.166Z,20.75
2023-05-03T12:09:59.595Z,19.96
2023-05-03T12:15:11.239Z,19.42
2023-05-03T12:21:04.416Z,19.36
2023-05-03T12:25:40.515Z,19.33
2023-05-03T12:30:46.773Z,19.96
2023-05-03T12:35:52.570Z,20.13
2023-05-03T12:40:55.306Z,19.49
2023-05-03T12:56:13.584Z,18.97
2023-05-03T13:02:02.859Z,18.82
2023-05-03T13:06:43.071Z,18.75
2023-05-03T13:11:48.780Z,18.95
2023-05-03T13:16:51.466Z,19.17
2023-05-03T13:21:53.418Z,19.32
2023-05-03T13:26:55.120Z,19.30
2023-05-03T13:31:56.884Z,19.61
2023-05-03T13:36:59.088Z,19.69
2023-05-03T13:42:01.062Z,19.93
2023-05-03T13:47:03.427Z,20.10
2023-05-03T13:52:05.335Z,19.96
2023-05-03T13:57:07.071Z,20.16
2023-05-03T14:02:08.864Z,20.15
2023-05-03T14:07:10.681Z,20.30
2023-05-03T14:12:12.344Z,20.48
2023-05-03T14:17:14.432Z,20.00
2023-05-03T14:22:16.460Z,19.49
2023-05-03T14:27:21.731Z,19.04
2023-05-03T14:32:24.447Z,18.96
2023-05-03T14:37:26.632Z,19.09
2023-05-03T14:42:32.100Z,19.33
2023-05-03T14:47:34.630Z,19.24
2023-05-03T14:52:37.980Z,19.45
2023-05-03T14:57:39.690Z,19.59
2023-05-03T15:02:42.565Z,19.71
2023-05-03T15:07:44.425Z,19.74
2023-05-03T15:12:46.319Z,19.49
2023-05-03T15:17:48.094Z,19.49
2023-05-03T15:22:49.938Z,19.91
2023-05-03T15:27:52.420Z,19.85
2023-05-03T15:32:54.627Z,19.73
2023-05-03T15:37:56.542Z,19.61
2023-05-03T15:42:58.281Z,19.51
2023-05-03T15:48:00.306Z,19.45
2023-05-03T15:53:02.095Z,19.09
2023-05-03T15:58:03.953Z,18.78
2023-05-03T16:03:06.043Z,18.46
2023-05-03T16:08:08.306Z,17.95
2023-05-03T16:13:10.597Z,17.54
2023-05-03T16:18:12.747Z,17.13
2023-05-03T16:23:14.582Z,16.85
2023-05-03T16:28:16.420Z,16.51
2023-05-03T16:33:18.286Z,16.40
2023-05-03T16:38:20.026Z,16.56
2023-05-03T16:43:21.852Z,17.53
2023-05-03T16:48:23.924Z,18.62
2023-05-03T16:53:25.747Z,18.93
2023-05-03T16:58:27.433Z,18.67
2023-05-03T17:03:29.184Z,18.47
2023-05-03T17:08:31.211Z,18.86
2023-05-03T17:13:33.201Z,19.57
2023-05-03T17:18:35.845Z,19.91
2023-05-03T17:23:39.477Z,20.08
2023-05-03T17:28:41.780Z,20.23
2023-05-03T17:33:43.548Z,20.13
2023-05-03T17:38:45.607Z,19.97
2023-05-03T17:43:48.356Z,19.32
2023-05-03T17:48:52.214Z,18.49
2023-05-03T17:53:55.233Z,17.84
2023-05-03T17:58:57.348Z,17.09
2023-05-03T18:03:59.332Z,16.30
2023-05-03T18:09:01.602Z,15.52
2023-05-03T18:14:03.961Z,14.70
2023-05-03T18:19:06.142Z,13.92
2023-05-03T18:24:08.076Z,13.26
2023-05-03T18:29:10.111Z,12.70
2023-05-03T18:34:12.180Z,12.23
2023-05-03T18:39:14.883Z,11.85
2023-05-03T18:44:17.274Z,11.49
2023-05-03T18:49:19.132Z,11.16
2023-05-03T18:54:21.023Z,10.81
2023-05-03T18:59:22.719Z,10.51
2023-05-03T19:04:24.613Z,10.28
2023-05-03T19:09:28.028Z,10.06
2023-05-03T19:14:29.760Z,9.78
2023-05-03T19:19:31.469Z,9.50
2023-05-03T19:24:33.183Z,9.27
2023-05-03T19:29:34.980Z,9.14
2023-05-03T19:34:36.688Z,9.08
2023-05-03T19:39:38.373Z,9.06
2023-05-03T19:44:40.161Z,9.00
2023-05-03T19:49:42.380Z,8.92
2023-05-03T19:54:44.096Z,8.83
2023-05-03T19:59:47.787Z,8.76
2023-05-03T20:04:49.812Z,8.67
2023-05-03T20:09:51.553Z,8.52
2023-05-03T20:14:55.574Z,8.40
2023-05-03T20:20:08.600Z,8.35
2023-05-03T20:25:11.311Z,8.34
2023-05-03T20:30:13.416Z,8.34
2023-05-03T20:35:17.019Z,8.32
2023-05-03T20:40:19.033Z,8.25
2023-05-03T20:45:20.949Z,8.10
2023-05-03T20:50:22.828Z,7.92
2023-05-03T20:55:24.587Z,7.71
2023-05-03T21:00:26.314Z,7.53
2023-05-03T21:05:28.915Z,7.38
2023-05-03T21:10:32.503Z,7.22
2023-05-03T21:15:44.746Z,7.09
2023-05-03T21:20:46.997Z,6.98
2023-05-03T21:25:48.844Z,6.87
2023-05-03T21:30:50.871Z,6.77
2023-05-03T21:35:53.046Z,6.67
2023-05-03T21:41:05.057Z,6.61
2023-05-03T21:46:08.073Z,6.57
2023-05-03T21:51:32.393Z,6.55
2023-05-03T21:56:34.168Z,6.54
2023-05-03T22:01:35.889Z,6.50
2023-05-03T22:06:38.201Z,6.42
2023-05-03T22:11:40.260Z,6.32
2023-05-03T22:16:42.442Z,6.27
2023-05-03T22:21:44.148Z,6.24
2023-05-03T22:26:46.371Z,6.24
2023-05-03T22:31:48.282Z,6.20
2023-05-03T22:36:50.049Z,6.16
2023-05-03T22:41:51.748Z,6.23
2023-05-03T22:46:53.655Z,6.33
2023-05-03T22:51:55.298Z,6.40
2023-05-03T22:56:58.620Z,6.40
2023-05-03T23:02:00.393Z,6.32
2023-05-03T23:07:02.429Z,6.23
2023-05-03T23:12:05.373Z,6.13
2023-05-03T23:17:10.388Z,6.07
2023-05-03T23:22:12.162Z,6.06
2023-05-03T23:27:13.951Z,6.02
2023-05-03T23:32:18.397Z,5.98
2023-05-03T23:37:20.702Z,5.93
2023-05-03T23:42:23.533Z,5.80
2023-05-03T23:47:28.166Z,5.62
2023-05-03T23:52:33.159Z,5.45
2023-05-03T23:57:35.008Z,5.35
